sensor_id;sensor_type;location;lat;lon;timestamp;P1;durP1;ratioP1;P2;durP2;ratioP2
69305;SDS011;56427;51.580;4.656;2023-04-21T00:00:46;20.80;;;14.35;;
69305;SDS011;56427;51.580;4.656;2023-04-21T00:03:12;22.75;;;16.75;;
69305;SDS011;56427;51.580;4.656;2023-04-21T00:05:37;24.37;;;15.70;;
69305;SDS011;56427;51.580;4.656;2023-04-21T00:08:06;24.27;;;15.35;;
69305;SDS011;56427;51.580;4.656;2023-04-21T00:10:34;23.42;;;14.85;;
69305;SDS011;56427;51.580;4.656;2023-04-21T00:13:00;23.63;;;16.67;;
69305;SDS011;56427;51.580;4.656;2023-04-21T00:15:25;23.57;;;16.67;;
69305;SDS011;56427;51.580;4.656;2023-04-21T00:17:50;25.07;;;15.87;;
69305;SDS011;56427;51.580;4.656;2023-04-21T00:20:16;24.47;;;16.87;;
69305;SDS011;56427;51.580;4.656;2023-04-21T00:22:41;27.83;;;17.48;;
69305;SDS011;56427;51.580;4.656;2023-04-21T00:25:07;26.90;;;17.17;;
69305;SDS011;56427;51.580;4.656;2023-04-21T00:27:33;27.42;;;18.05;;
69305;SDS011;56427;51.580;4.656;2023-04-21T00:29:58;23.37;;;15.97;;
69305;SDS011;56427;51.580;4.656;2023-04-21T00:32:24;27.83;;;18.80;;
69305;SDS011;56427;51.580;4.656;2023-04-21T00:34:49;30.80;;;19.57;;
69305;SDS011;56427;51.580;4.656;2023-04-21T00:37:14;32.33;;;21.20;;
69305;SDS011;56427;51.580;4.656;2023-04-21T00:39:40;33.83;;;21.70;;
69305;SDS011;56427;51.580;4.656;2023-04-21T00:42:05;35.50;;;22.05;;
69305;SDS011;56427;51.580;4.656;2023-04-21T00:44:30;35.05;;;21.70;;
69305;SDS011;56427;51.580;4.656;2023-04-21T00:46:56;36.30;;;22.77;;
69305;SDS011;56427;51.580;4.656;2023-04-21T00:49:21;37.17;;;22.63;;
69305;SDS011;56427;51.580;4.656;2023-04-21T00:51:49;30.58;;;17.80;;
69305;SDS011;56427;51.580;4.656;2023-04-21T00:54:16;37.83;;;22.40;;
69305;SDS011;56427;51.580;4.656;2023-04-21T00:56:42;39.13;;;23.47;;
69305;SDS011;56427;51.580;4.656;2023-04-21T00:59:08;40.35;;;24.02;;
69305;SDS011;56427;51.580;4.656;2023-04-21T01:01:33;41.67;;;22.60;;
69305;SDS011;56427;51.580;4.656;2023-04-21T01:04:00;38.78;;;22.17;;
69305;SDS011;56427;51.580;4.656;2023-04-21T01:06:30;41.03;;;23.40;;
69305;SDS011;56427;51.580;4.656;2023-04-21T01:08:57;41.70;;;24.65;;
69305;SDS011;56427;51.580;4.656;2023-04-21T01:11:22;45.00;;;26.10;;
69305;SDS011;56427;51.580;4.656;2023-04-21T01:13:51;44.67;;;25.95;;
69305;SDS011;56427;51.580;4.656;2023-04-21T01:16:18;46.85;;;25.58;;
69305;SDS011;56427;51.580;4.656;2023-04-21T01:18:45;44.33;;;25.58;;
69305;SDS011;56427;51.580;4.656;2023-04-21T01:21:10;47.70;;;27.05;;
69305;SDS011;56427;51.580;4.656;2023-04-21T01:23:37;48.43;;;26.37;;
69305;SDS011;56427;51.580;4.656;2023-04-21T01:26:04;50.80;;;27.10;;
69305;SDS011;56427;51.580;4.656;2023-04-21T01:28:30;51.13;;;27.83;;
69305;SDS011;56427;51.580;4.656;2023-04-21T01:30:55;46.47;;;25.03;;
69305;SDS011;56427;51.580;4.656;2023-04-21T01:33:21;48.07;;;25.80;;
69305;SDS011;56427;51.580;4.656;2023-04-21T01:35:46;45.60;;;26.55;;
69305;SDS011;56427;51.580;4.656;2023-04-21T01:38:12;35.50;;;21.13;;
69305;SDS011;56427;51.580;4.656;2023-04-21T01:40:43;40.00;;;22.95;;
69305;SDS011;56427;51.580;4.656;2023-04-21T01:43:10;41.67;;;22.60;;
69305;SDS011;56427;51.580;4.656;2023-04-21T01:45:36;40.47;;;25.20;;
69305;SDS011;56427;51.580;4.656;2023-04-21T01:48:02;49.03;;;25.83;;
69305;SDS011;56427;51.580;4.656;2023-04-21T01:50:27;45.20;;;26.10;;
69305;SDS011;56427;51.580;4.656;2023-04-21T01:52:53;48.63;;;27.27;;
69305;SDS011;56427;51.580;4.656;2023-04-21T01:55:18;52.30;;;27.53;;
69305;SDS011;56427;51.580;4.656;2023-04-21T01:57:44;48.30;;;25.38;;
69305;SDS011;56427;51.580;4.656;2023-04-21T02:00:09;49.70;;;26.33;;
69305;SDS011;56427;51.580;4.656;2023-04-21T02:02:35;32.30;;;18.27;;
69305;SDS011;56427;51.580;4.656;2023-04-21T02:05:01;41.40;;;21.73;;
69305;SDS011;56427;51.580;4.656;2023-04-21T02:07:26;41.80;;;23.97;;
69305;SDS011;56427;51.580;4.656;2023-04-21T02:09:51;37.97;;;21.40;;
69305;SDS011;56427;51.580;4.656;2023-04-21T02:12:17;32.97;;;18.65;;
69305;SDS011;56427;51.580;4.656;2023-04-21T02:14:42;31.97;;;19.40;;
69305;SDS011;56427;51.580;4.656;2023-04-21T02:17:08;35.50;;;19.40;;
69305;SDS011;56427;51.580;4.656;2023-04-21T02:19:33;30.27;;;17.73;;
69305;SDS011;56427;51.580;4.656;2023-04-21T02:21:59;30.50;;;16.25;;
69305;SDS011;56427;51.580;4.656;2023-04-21T02:24:24;31.27;;;18.07;;
69305;SDS011;56427;51.580;4.656;2023-04-21T02:26:50;30.20;;;17.93;;
69305;SDS011;56427;51.580;4.656;2023-04-21T02:29:15;29.23;;;17.27;;
69305;SDS011;56427;51.580;4.656;2023-04-21T02:31:40;29.52;;;18.00;;
69305;SDS011;56427;51.580;4.656;2023-04-21T02:34:06;32.80;;;18.37;;
69305;SDS011;56427;51.580;4.656;2023-04-21T02:36:32;32.17;;;17.87;;
69305;SDS011;56427;51.580;4.656;2023-04-21T02:38:57;33.15;;;18.98;;
69305;SDS011;56427;51.580;4.656;2023-04-21T02:41:23;34.10;;;18.60;;
69305;SDS011;56427;51.580;4.656;2023-04-21T02:43:48;36.67;;;19.50;;
69305;SDS011;56427;51.580;4.656;2023-04-21T02:46:13;37.67;;;21.20;;
69305;SDS011;56427;51.580;4.656;2023-04-21T02:48:39;38.67;;;21.42;;
69305;SDS011;56427;51.580;4.656;2023-04-21T02:51:04;37.30;;;21.63;;
69305;SDS011;56427;51.580;4.656;2023-04-21T02:53:35;33.38;;;18.48;;
69305;SDS011;56427;51.580;4.656;2023-04-21T02:56:01;34.95;;;18.63;;
69305;SDS011;56427;51.580;4.656;2023-04-21T02:58:28;30.63;;;17.48;;
69305;SDS011;56427;51.580;4.656;2023-04-21T03:00:54;31.00;;;18.63;;
69305;SDS011;56427;51.580;4.656;2023-04-21T03:03:20;33.85;;;19.73;;
69305;SDS011;56427;51.580;4.656;2023-04-21T03:05:45;32.73;;;18.10;;
69305;SDS011;56427;51.580;4.656;2023-04-21T03:08:10;33.97;;;19.33;;
69305;SDS011;56427;51.580;4.656;2023-04-21T03:10:36;33.70;;;18.73;;
69305;SDS011;56427;51.580;4.656;2023-04-21T03:13:02;33.00;;;19.33;;
69305;SDS011;56427;51.580;4.656;2023-04-21T03:15:27;34.43;;;18.53;;
69305;SDS011;56427;51.580;4.656;2023-04-21T03:17:53;33.78;;;18.75;;
69305;SDS011;56427;51.580;4.656;2023-04-21T03:20:18;34.47;;;19.37;;
69305;SDS011;56427;51.580;4.656;2023-04-21T03:22:44;30.13;;;17.10;;
69305;SDS011;56427;51.580;4.656;2023-04-21T03:25:09;35.63;;;19.77;;
69305;SDS011;56427;51.580;4.656;2023-04-21T03:27:35;31.10;;;18.15;;
69305;SDS011;56427;51.580;4.656;2023-04-21T03:30:01;31.13;;;18.00;;
69305;SDS011;56427;51.580;4.656;2023-04-21T03:32:27;31.90;;;17.10;;
69305;SDS011;56427;51.580;4.656;2023-04-21T03:34:52;32.13;;;18.43;;
69305;SDS011;56427;51.580;4.656;2023-04-21T03:37:17;36.07;;;18.43;;
69305;SDS011;56427;51.580;4.656;2023-04-21T03:39:43;36.70;;;18.98;;
69305;SDS011;56427;51.580;4.656;2023-04-21T03:42:08;32.43;;;19.27;;
69305;SDS011;56427;51.580;4.656;2023-04-21T03:44:34;38.67;;;20.13;;
69305;SDS011;56427;51.580;4.656;2023-04-21T03:46:59;37.47;;;20.07;;
69305;SDS011;56427;51.580;4.656;2023-04-21T03:49:27;34.20;;;18.35;;
69305;SDS011;56427;51.580;4.656;2023-04-21T03:51:52;38.53;;;19.90;;
69305;SDS011;56427;51.580;4.656;2023-04-21T03:54:18;40.13;;;20.50;;
69305;SDS011;56427;51.580;4.656;2023-04-21T03:56:43;35.57;;;18.57;;
69305;SDS011;56427;51.580;4.656;2023-04-21T03:59:08;43.97;;;20.83;;
69305;SDS011;56427;51.580;4.656;2023-04-21T04:01:34;38.65;;;20.10;;
69305;SDS011;56427;51.580;4.656;2023-04-21T04:04:00;40.90;;;21.33;;
69305;SDS011;56427;51.580;4.656;2023-04-21T04:06:25;39.03;;;21.00;;
69305;SDS011;56427;51.580;4.656;2023-04-21T04:08:52;38.47;;;20.42;;
69305;SDS011;56427;51.580;4.656;2023-04-21T04:11:17;41.37;;;21.57;;
69305;SDS011;56427;51.580;4.656;2023-04-21T04:13:43;41.67;;;21.20;;
69305;SDS011;56427;51.580;4.656;2023-04-21T04:16:08;41.87;;;21.30;;
69305;SDS011;56427;51.580;4.656;2023-04-21T04:18:33;40.90;;;19.73;;
69305;SDS011;56427;51.580;4.656;2023-04-21T04:21:04;44.50;;;21.60;;
69305;SDS011;56427;51.580;4.656;2023-04-21T04:23:32;39.05;;;20.60;;
69305;SDS011;56427;51.580;4.656;2023-04-21T04:25:58;43.55;;;22.73;;
69305;SDS011;56427;51.580;4.656;2023-04-21T04:28:25;43.78;;;22.50;;
69305;SDS011;56427;51.580;4.656;2023-04-21T04:30:51;50.03;;;23.00;;
69305;SDS011;56427;51.580;4.656;2023-04-21T04:33:16;45.63;;;22.25;;
69305;SDS011;56427;51.580;4.656;2023-04-21T04:35:42;44.70;;;21.03;;
69305;SDS011;56427;51.580;4.656;2023-04-21T04:38:07;49.50;;;23.10;;
69305;SDS011;56427;51.580;4.656;2023-04-21T04:40:33;44.90;;;23.00;;
69305;SDS011;56427;51.580;4.656;2023-04-21T04:42:59;51.72;;;24.02;;
69305;SDS011;56427;51.580;4.656;2023-04-21T04:45:26;50.67;;;24.87;;
69305;SDS011;56427;51.580;4.656;2023-04-21T04:47:52;45.63;;;23.08;;
69305;SDS011;56427;51.580;4.656;2023-04-21T04:50:18;48.87;;;23.53;;
69305;SDS011;56427;51.580;4.656;2023-04-21T04:52:43;52.67;;;25.00;;
69305;SDS011;56427;51.580;4.656;2023-04-21T04:55:11;49.15;;;23.58;;
69305;SDS011;56427;51.580;4.656;2023-04-21T04:57:36;52.78;;;24.92;;
69305;SDS011;56427;51.580;4.656;2023-04-21T05:00:02;51.93;;;26.80;;
69305;SDS011;56427;51.580;4.656;2023-04-21T05:02:30;53.35;;;25.63;;
69305;SDS011;56427;51.580;4.656;2023-04-21T05:04:56;61.05;;;28.20;;
69305;SDS011;56427;51.580;4.656;2023-04-21T05:07:21;60.93;;;26.20;;
69305;SDS011;56427;51.580;4.656;2023-04-21T05:09:47;56.63;;;26.23;;
69305;SDS011;56427;51.580;4.656;2023-04-21T05:12:12;56.17;;;24.83;;
69305;SDS011;56427;51.580;4.656;2023-04-21T05:14:37;59.03;;;27.30;;
69305;SDS011;56427;51.580;4.656;2023-04-21T05:17:03;61.05;;;27.92;;
69305;SDS011;56427;51.580;4.656;2023-04-21T05:19:28;68.47;;;29.97;;
69305;SDS011;56427;51.580;4.656;2023-04-21T05:21:57;64.23;;;29.33;;
69305;SDS011;56427;51.580;4.656;2023-04-21T05:24:24;62.40;;;29.70;;
69305;SDS011;56427;51.580;4.656;2023-04-21T05:26:50;66.10;;;29.77;;
69305;SDS011;56427;51.580;4.656;2023-04-21T05:29:15;74.07;;;32.07;;
69305;SDS011;56427;51.580;4.656;2023-04-21T05:31:40;77.87;;;34.20;;
69305;SDS011;56427;51.580;4.656;2023-04-21T05:34:06;72.97;;;33.60;;
69305;SDS011;56427;51.580;4.656;2023-04-21T05:36:31;71.43;;;32.40;;
69305;SDS011;56427;51.580;4.656;2023-04-21T05:38:56;70.83;;;33.73;;
69305;SDS011;56427;51.580;4.656;2023-04-21T05:41:22;60.83;;;27.77;;
69305;SDS011;56427;51.580;4.656;2023-04-21T05:43:47;65.17;;;29.77;;
69305;SDS011;56427;51.580;4.656;2023-04-21T05:46:13;69.83;;;31.90;;
69305;SDS011;56427;51.580;4.656;2023-04-21T05:48:38;75.87;;;33.83;;
69305;SDS011;56427;51.580;4.656;2023-04-21T05:51:10;68.63;;;32.42;;
69305;SDS011;56427;51.580;4.656;2023-04-21T05:53:39;68.18;;;31.25;;
69305;SDS011;56427;51.580;4.656;2023-04-21T05:56:05;75.57;;;33.23;;
69305;SDS011;56427;51.580;4.656;2023-04-21T05:58:32;73.30;;;31.50;;
69305;SDS011;56427;51.580;4.656;2023-04-21T06:00:57;70.95;;;32.15;;
69305;SDS011;56427;51.580;4.656;2023-04-21T06:03:23;70.13;;;31.47;;
69305;SDS011;56427;51.580;4.656;2023-04-21T06:05:52;77.77;;;34.73;;
69305;SDS011;56427;51.580;4.656;2023-04-21T06:08:23;75.57;;;35.13;;
69305;SDS011;56427;51.580;4.656;2023-04-21T06:10:49;70.80;;;31.97;;
69305;SDS011;56427;51.580;4.656;2023-04-21T06:13:14;70.82;;;32.88;;
69305;SDS011;56427;51.580;4.656;2023-04-21T06:15:40;66.60;;;29.60;;
69305;SDS011;56427;51.580;4.656;2023-04-21T06:18:05;60.43;;;29.27;;
69305;SDS011;56427;51.580;4.656;2023-04-21T06:20:31;70.57;;;33.35;;
69305;SDS011;56427;51.580;4.656;2023-04-21T06:22:56;67.30;;;30.20;;
69305;SDS011;56427;51.580;4.656;2023-04-21T06:25:21;63.97;;;29.10;;
69305;SDS011;56427;51.580;4.656;2023-04-21T06:27:47;60.73;;;29.53;;
69305;SDS011;56427;51.580;4.656;2023-04-21T06:30:12;58.07;;;28.53;;
69305;SDS011;56427;51.580;4.656;2023-04-21T06:32:38;73.82;;;32.70;;
69305;SDS011;56427;51.580;4.656;2023-04-21T06:35:03;76.77;;;33.13;;
69305;SDS011;56427;51.580;4.656;2023-04-21T06:37:29;63.70;;;32.03;;
69305;SDS011;56427;51.580;4.656;2023-04-21T06:39:55;58.03;;;29.87;;
69305;SDS011;56427;51.580;4.656;2023-04-21T06:42:20;57.73;;;29.70;;
69305;SDS011;56427;51.580;4.656;2023-04-21T06:44:45;61.00;;;29.77;;
69305;SDS011;56427;51.580;4.656;2023-04-21T06:47:11;66.15;;;33.42;;
69305;SDS011;56427;51.580;4.656;2023-04-21T06:49:36;62.80;;;30.35;;
69305;SDS011;56427;51.580;4.656;2023-04-21T06:52:02;61.50;;;29.60;;
69305;SDS011;56427;51.580;4.656;2023-04-21T06:54:28;59.83;;;28.92;;
69305;SDS011;56427;51.580;4.656;2023-04-21T06:56:54;53.73;;;26.60;;
69305;SDS011;56427;51.580;4.656;2023-04-21T06:59:19;50.30;;;26.70;;
69305;SDS011;56427;51.580;4.656;2023-04-21T07:01:45;50.53;;;27.08;;
69305;SDS011;56427;51.580;4.656;2023-04-21T07:04:13;51.65;;;28.50;;
69305;SDS011;56427;51.580;4.656;2023-04-21T07:06:38;45.63;;;26.10;;
69305;SDS011;56427;51.580;4.656;2023-04-21T07:09:03;43.23;;;23.67;;
69305;SDS011;56427;51.580;4.656;2023-04-21T07:11:29;45.35;;;26.90;;
69305;SDS011;56427;51.580;4.656;2023-04-21T07:13:55;47.53;;;26.27;;
69305;SDS011;56427;51.580;4.656;2023-04-21T07:16:21;45.40;;;26.00;;
69305;SDS011;56427;51.580;4.656;2023-04-21T07:18:46;39.90;;;21.73;;
69305;SDS011;56427;51.580;4.656;2023-04-21T07:21:12;47.23;;;25.00;;
69305;SDS011;56427;51.580;4.656;2023-04-21T07:23:37;40.85;;;24.17;;
69305;SDS011;56427;51.580;4.656;2023-04-21T07:26:02;40.10;;;22.60;;
69305;SDS011;56427;51.580;4.656;2023-04-21T07:28:28;42.60;;;22.67;;
69305;SDS011;56427;51.580;4.656;2023-04-21T07:30:53;37.97;;;23.27;;
69305;SDS011;56427;51.580;4.656;2023-04-21T07:33:18;37.93;;;22.40;;
69305;SDS011;56427;51.580;4.656;2023-04-21T07:35:44;37.93;;;23.00;;
69305;SDS011;56427;51.580;4.656;2023-04-21T07:38:09;35.80;;;22.33;;
69305;SDS011;56427;51.580;4.656;2023-04-21T07:40:35;36.63;;;21.33;;
69305;SDS011;56427;51.580;4.656;2023-04-21T07:43:00;38.57;;;23.93;;
69305;SDS011;56427;51.580;4.656;2023-04-21T07:45:25;39.47;;;23.77;;
69305;SDS011;56427;51.580;4.656;2023-04-21T07:47:51;39.80;;;22.23;;
69305;SDS011;56427;51.580;4.656;2023-04-21T07:50:16;37.43;;;23.27;;
69305;SDS011;56427;51.580;4.656;2023-04-21T07:52:41;36.05;;;22.60;;
69305;SDS011;56427;51.580;4.656;2023-04-21T07:55:07;42.00;;;22.47;;
69305;SDS011;56427;51.580;4.656;2023-04-21T07:57:32;38.40;;;23.13;;
69305;SDS011;56427;51.580;4.656;2023-04-21T08:00:02;37.50;;;22.58;;
69305;SDS011;56427;51.580;4.656;2023-04-21T08:02:28;38.35;;;21.52;;
69305;SDS011;56427;51.580;4.656;2023-04-21T08:04:54;34.23;;;19.60;;
69305;SDS011;56427;51.580;4.656;2023-04-21T08:07:19;35.90;;;21.93;;
69305;SDS011;56427;51.580;4.656;2023-04-21T08:09:45;31.87;;;18.60;;
69305;SDS011;56427;51.580;4.656;2023-04-21T08:12:10;32.33;;;19.67;;
69305;SDS011;56427;51.580;4.656;2023-04-21T08:14:36;31.07;;;19.37;;
69305;SDS011;56427;51.580;4.656;2023-04-21T08:17:01;31.63;;;19.10;;
69305;SDS011;56427;51.580;4.656;2023-04-21T08:19:27;28.60;;;18.43;;
69305;SDS011;56427;51.580;4.656;2023-04-21T08:21:52;31.73;;;18.73;;
69305;SDS011;56427;51.580;4.656;2023-04-21T08:24:18;28.93;;;18.40;;
69305;SDS011;56427;51.580;4.656;2023-04-21T08:26:43;31.97;;;20.67;;
69305;SDS011;56427;51.580;4.656;2023-04-21T08:29:09;29.58;;;18.77;;
69305;SDS011;56427;51.580;4.656;2023-04-21T08:31:35;33.23;;;21.20;;
69305;SDS011;56427;51.580;4.656;2023-04-21T08:34:00;29.88;;;19.55;;
69305;SDS011;56427;51.580;4.656;2023-04-21T08:36:26;25.33;;;17.70;;
69305;SDS011;56427;51.580;4.656;2023-04-21T08:38:51;27.20;;;18.02;;
69305;SDS011;56427;51.580;4.656;2023-04-21T08:41:17;26.63;;;18.23;;
69305;SDS011;56427;51.580;4.656;2023-04-21T08:43:44;29.30;;;19.77;;
69305;SDS011;56427;51.580;4.656;2023-04-21T08:46:10;26.10;;;17.10;;
69305;SDS011;56427;51.580;4.656;2023-04-21T08:48:37;28.27;;;18.90;;
69305;SDS011;56427;51.580;4.656;2023-04-21T08:51:03;28.77;;;18.47;;
69305;SDS011;56427;51.580;4.656;2023-04-21T08:53:36;30.60;;;19.42;;
69305;SDS011;56427;51.580;4.656;2023-04-21T08:56:02;32.13;;;21.27;;
69305;SDS011;56427;51.580;4.656;2023-04-21T08:58:27;29.67;;;18.73;;
69305;SDS011;56427;51.580;4.656;2023-04-21T09:00:53;28.30;;;17.70;;
69305;SDS011;56427;51.580;4.656;2023-04-21T09:03:22;27.30;;;17.87;;
69305;SDS011;56427;51.580;4.656;2023-04-21T09:05:56;27.88;;;17.95;;
69305;SDS011;56427;51.580;4.656;2023-04-21T09:08:22;29.58;;;19.08;;
69305;SDS011;56427;51.580;4.656;2023-04-21T09:10:49;30.20;;;20.25;;
69305;SDS011;56427;51.580;4.656;2023-04-21T09:13:19;29.85;;;19.77;;
69305;SDS011;56427;51.580;4.656;2023-04-21T09:15:46;27.63;;;18.77;;
69305;SDS011;56427;51.580;4.656;2023-04-21T09:18:31;25.02;;;17.08;;
69305;SDS011;56427;51.580;4.656;2023-04-21T09:21:10;27.58;;;18.80;;
69305;SDS011;56427;51.580;4.656;2023-04-21T09:23:40;25.27;;;17.60;;
69305;SDS011;56427;51.580;4.656;2023-04-21T09:26:13;27.35;;;18.20;;
69305;SDS011;56427;51.580;4.656;2023-04-21T09:28:43;22.93;;;15.43;;
69305;SDS011;56427;51.580;4.656;2023-04-21T09:31:13;24.73;;;17.40;;
69305;SDS011;56427;51.580;4.656;2023-04-21T09:33:51;25.08;;;16.63;;
69305;SDS011;56427;51.580;4.656;2023-04-21T09:36:22;25.30;;;16.50;;
69305;SDS011;56427;51.580;4.656;2023-04-21T09:38:53;21.75;;;15.00;;
69305;SDS011;56427;51.580;4.656;2023-04-21T09:41:26;23.07;;;15.00;;
69305;SDS011;56427;51.580;4.656;2023-04-21T09:43:51;22.23;;;15.80;;
69305;SDS011;56427;51.580;4.656;2023-04-21T09:46:17;23.20;;;15.97;;
69305;SDS011;56427;51.580;4.656;2023-04-21T09:48:45;20.10;;;13.98;;
69305;SDS011;56427;51.580;4.656;2023-04-21T09:51:12;21.15;;;14.77;;
69305;SDS011;56427;51.580;4.656;2023-04-21T09:53:39;19.38;;;13.25;;
69305;SDS011;56427;51.580;4.656;2023-04-21T09:56:10;22.67;;;15.10;;
69305;SDS011;56427;51.580;4.656;2023-04-21T09:58:47;19.63;;;14.43;;
69305;SDS011;56427;51.580;4.656;2023-04-21T10:01:17;22.02;;;14.13;;
69305;SDS011;56427;51.580;4.656;2023-04-21T10:03:43;18.80;;;13.48;;
69305;SDS011;56427;51.580;4.656;2023-04-21T10:06:12;23.02;;;13.98;;
69305;SDS011;56427;51.580;4.656;2023-04-21T10:08:38;16.90;;;12.68;;
69305;SDS011;56427;51.580;4.656;2023-04-21T10:11:06;16.90;;;11.60;;
69305;SDS011;56427;51.580;4.656;2023-04-21T10:13:32;19.52;;;12.00;;
69305;SDS011;56427;51.580;4.656;2023-04-21T10:16:05;15.68;;;10.73;;
69305;SDS011;56427;51.580;4.656;2023-04-21T10:18:50;15.70;;;11.35;;
69305;SDS011;56427;51.580;4.656;2023-04-21T10:21:17;18.75;;;12.18;;
69305;SDS011;56427;51.580;4.656;2023-04-21T10:23:46;17.83;;;12.30;;
69305;SDS011;56427;51.580;4.656;2023-04-21T10:28:59;16.45;;;11.15;;
69305;SDS011;56427;51.580;4.656;2023-04-21T10:31:34;16.00;;;11.15;;
69305;SDS011;56427;51.580;4.656;2023-04-21T10:39:41;13.65;;;10.05;;
69305;SDS011;56427;51.580;4.656;2023-04-21T10:44:39;18.30;;;11.18;;
69305;SDS011;56427;51.580;4.656;2023-04-21T10:47:06;18.70;;;13.02;;
69305;SDS011;56427;51.580;4.656;2023-04-21T10:49:32;17.33;;;11.73;;
69305;SDS011;56427;51.580;4.656;2023-04-21T10:52:03;20.85;;;13.32;;
69305;SDS011;56427;51.580;4.656;2023-04-21T10:57:07;17.90;;;11.85;;
69305;SDS011;56427;51.580;4.656;2023-04-21T10:59:35;17.07;;;11.40;;
69305;SDS011;56427;51.580;4.656;2023-04-21T11:02:01;14.23;;;10.57;;
69305;SDS011;56427;51.580;4.656;2023-04-21T11:04:27;13.20;;;8.98;;
69305;SDS011;56427;51.580;4.656;2023-04-21T11:07:11;13.37;;;9.13;;
69305;SDS011;56427;51.580;4.656;2023-04-21T11:09:41;14.70;;;10.18;;
69305;SDS011;56427;51.580;4.656;2023-04-21T11:12:08;17.40;;;10.95;;
69305;SDS011;56427;51.580;4.656;2023-04-21T11:14:36;16.40;;;10.98;;
69305;SDS011;56427;51.580;4.656;2023-04-21T11:17:03;14.80;;;9.57;;
69305;SDS011;56427;51.580;4.656;2023-04-21T11:19:33;15.07;;;10.20;;
69305;SDS011;56427;51.580;4.656;2023-04-21T11:21:58;13.43;;;9.15;;
69305;SDS011;56427;51.580;4.656;2023-04-21T11:24:24;16.05;;;10.52;;
69305;SDS011;56427;51.580;4.656;2023-04-21T11:26:50;15.13;;;10.67;;
69305;SDS011;56427;51.580;4.656;2023-04-21T11:29:15;17.30;;;10.87;;
69305;SDS011;56427;51.580;4.656;2023-04-21T11:31:42;14.93;;;10.40;;
69305;SDS011;56427;51.580;4.656;2023-04-21T11:34:10;16.25;;;10.73;;
69305;SDS011;56427;51.580;4.656;2023-04-21T11:36:37;14.17;;;10.40;;
69305;SDS011;56427;51.580;4.656;2023-04-21T11:39:05;15.40;;;10.97;;
69305;SDS011;56427;51.580;4.656;2023-04-21T11:41:34;14.93;;;10.18;;
69305;SDS011;56427;51.580;4.656;2023-04-21T11:44:00;14.20;;;10.23;;
69305;SDS011;56427;51.580;4.656;2023-04-21T11:46:26;14.27;;;9.35;;
69305;SDS011;56427;51.580;4.656;2023-04-21T11:49:00;12.55;;;9.07;;
69305;SDS011;56427;51.580;4.656;2023-04-21T11:51:31;12.90;;;8.67;;
69305;SDS011;56427;51.580;4.656;2023-04-21T11:53:58;13.52;;;9.10;;
69305;SDS011;56427;51.580;4.656;2023-04-21T11:56:23;14.05;;;9.07;;
69305;SDS011;56427;51.580;4.656;2023-04-21T11:58:49;16.23;;;9.77;;
69305;SDS011;56427;51.580;4.656;2023-04-21T12:01:16;16.42;;;10.65;;
69305;SDS011;56427;51.580;4.656;2023-04-21T12:03:49;13.30;;;8.45;;
69305;SDS011;56427;51.580;4.656;2023-04-21T12:06:19;16.42;;;9.27;;
69305;SDS011;56427;51.580;4.656;2023-04-21T12:08:45;12.03;;;7.90;;
69305;SDS011;56427;51.580;4.656;2023-04-21T12:11:10;13.43;;;9.18;;
69305;SDS011;56427;51.580;4.656;2023-04-21T12:13:36;12.37;;;8.33;;
69305;SDS011;56427;51.580;4.656;2023-04-21T12:16:04;12.50;;;8.18;;
69305;SDS011;56427;51.580;4.656;2023-04-21T12:18:30;12.13;;;8.30;;
69305;SDS011;56427;51.580;4.656;2023-04-21T12:20:56;14.38;;;10.13;;
69305;SDS011;56427;51.580;4.656;2023-04-21T12:23:25;13.27;;;9.25;;
69305;SDS011;56427;51.580;4.656;2023-04-21T12:25:50;14.47;;;8.90;;
69305;SDS011;56427;51.580;4.656;2023-04-21T12:28:16;14.00;;;10.07;;
69305;SDS011;56427;51.580;4.656;2023-04-21T12:30:42;15.13;;;10.10;;
69305;SDS011;56427;51.580;4.656;2023-04-21T12:33:07;15.13;;;10.10;;
69305;SDS011;56427;51.580;4.656;2023-04-21T12:35:32;13.33;;;8.60;;
69305;SDS011;56427;51.580;4.656;2023-04-21T12:37:58;13.00;;;8.95;;
69305;SDS011;56427;51.580;4.656;2023-04-21T12:40:23;12.40;;;8.20;;
69305;SDS011;56427;51.580;4.656;2023-04-21T12:42:48;11.83;;;8.60;;
69305;SDS011;56427;51.580;4.656;2023-04-21T12:45:14;12.63;;;8.30;;
69305;SDS011;56427;51.580;4.656;2023-04-21T12:47:40;13.73;;;8.53;;
69305;SDS011;56427;51.580;4.656;2023-04-21T12:50:06;12.80;;;9.13;;
69305;SDS011;56427;51.580;4.656;2023-04-21T12:52:32;12.65;;;8.60;;
69305;SDS011;56427;51.580;4.656;2023-04-21T12:54:57;11.83;;;8.20;;
69305;SDS011;56427;51.580;4.656;2023-04-21T12:57:23;12.65;;;8.88;;
69305;SDS011;56427;51.580;4.656;2023-04-21T12:59:48;13.47;;;9.00;;
69305;SDS011;56427;51.580;4.656;2023-04-21T13:02:14;11.13;;;7.80;;
69305;SDS011;56427;51.580;4.656;2023-04-21T13:04:39;11.40;;;8.40;;
69305;SDS011;56427;51.580;4.656;2023-04-21T13:07:06;10.57;;;7.95;;
69305;SDS011;56427;51.580;4.656;2023-04-21T13:09:32;11.35;;;7.68;;
69305;SDS011;56427;51.580;4.656;2023-04-21T13:11:57;11.73;;;7.50;;
69305;SDS011;56427;51.580;4.656;2023-04-21T13:14:22;10.27;;;7.50;;
69305;SDS011;56427;51.580;4.656;2023-04-21T13:16:48;10.70;;;7.03;;
69305;SDS011;56427;51.580;4.656;2023-04-21T13:19:13;11.52;;;7.40;;
69305;SDS011;56427;51.580;4.656;2023-04-21T13:21:39;11.40;;;7.13;;
69305;SDS011;56427;51.580;4.656;2023-04-21T13:24:05;11.15;;;6.80;;
69305;SDS011;56427;51.580;4.656;2023-04-21T13:26:31;10.87;;;7.20;;
69305;SDS011;56427;51.580;4.656;2023-04-21T13:29:00;12.52;;;7.60;;
69305;SDS011;56427;51.580;4.656;2023-04-21T13:31:26;10.23;;;7.38;;
69305;SDS011;56427;51.580;4.656;2023-04-21T13:33:52;9.03;;;6.40;;
69305;SDS011;56427;51.580;4.656;2023-04-21T13:36:17;12.25;;;7.35;;
69305;SDS011;56427;51.580;4.656;2023-04-21T13:38:43;10.53;;;7.23;;
69305;SDS011;56427;51.580;4.656;2023-04-21T13:41:08;9.70;;;5.80;;
69305;SDS011;56427;51.580;4.656;2023-04-21T13:43:34;10.63;;;6.73;;
69305;SDS011;56427;51.580;4.656;2023-04-21T13:45:59;12.57;;;9.63;;
69305;SDS011;56427;51.580;4.656;2023-04-21T13:48:25;12.83;;;10.20;;
69305;SDS011;56427;51.580;4.656;2023-04-21T13:50:50;13.70;;;9.75;;
69305;SDS011;56427;51.580;4.656;2023-04-21T13:53:16;14.87;;;10.87;;
69305;SDS011;56427;51.580;4.656;2023-04-21T13:55:42;16.07;;;10.50;;
69305;SDS011;56427;51.580;4.656;2023-04-21T13:58:08;13.57;;;10.67;;
69305;SDS011;56427;51.580;4.656;2023-04-21T14:00:34;12.10;;;8.85;;
69305;SDS011;56427;51.580;4.656;2023-04-21T14:03:00;11.87;;;9.73;;
69305;SDS011;56427;51.580;4.656;2023-04-21T14:05:25;12.93;;;9.60;;
69305;SDS011;56427;51.580;4.656;2023-04-21T14:07:51;13.20;;;9.13;;
69305;SDS011;56427;51.580;4.656;2023-04-21T14:10:16;11.10;;;7.93;;
69305;SDS011;56427;51.580;4.656;2023-04-21T14:12:42;12.27;;;6.90;;
69305;SDS011;56427;51.580;4.656;2023-04-21T14:15:09;9.88;;;7.28;;
69305;SDS011;56427;51.580;4.656;2023-04-21T14:17:36;10.93;;;6.95;;
69305;SDS011;56427;51.580;4.656;2023-04-21T14:20:02;10.23;;;7.47;;
69305;SDS011;56427;51.580;4.656;2023-04-21T14:22:28;13.35;;;7.88;;
69305;SDS011;56427;51.580;4.656;2023-04-21T14:24:53;13.57;;;8.23;;
69305;SDS011;56427;51.580;4.656;2023-04-21T14:27:19;16.13;;;11.40;;
69305;SDS011;56427;51.580;4.656;2023-04-21T14:29:44;12.87;;;8.33;;
69305;SDS011;56427;51.580;4.656;2023-04-21T14:32:09;14.03;;;8.43;;